DW6784 Goteborg SE current weather conditions

sailwx.info

Wind from 208 at 0 knots gusting 2

Air temperature 15.6° C
Dewpoint 15.1° C

Last reported at 2019-Aug-18 08:09 UTC.
Time now 2019-Aug-18 08:43 UTC

Location: N 57°42' E 012°29'.
View on Google Maps.

See reports from other nearby stations

  
Tides and Currents Weather Stations Pressure Air Temp Water Temp Dewpoint Dewpoint Depression Visibility Wind Speed Wind Dir Waves Ship Positions
date/time (UTC)wind fromknots sea level pressurealtimeterstation pressurevisibilityair tempwater tempwave heightnotes
2019-Aug-18 08:09 208 0 gusting 2 15.6
2019-Aug-18 07:49 219 0 gusting 2 15.6
2019-Aug-18 07:34 219 0 gusting 2 15.0
2019-Aug-18 07:19 228 1 gusting 2 15.0
2019-Aug-18 07:14 241 1 gusting 2 15.0
2019-Aug-18 07:09 237 1 gusting 2 15.0
2019-Aug-18 06:49 237 0 gusting 2 15.0
2019-Aug-18 06:44 237 15.0
2019-Aug-18 06:39 237 15.0
2019-Aug-18 06:19 237 1 gusting 2 14.4
2019-Aug-18 05:49 239 13.9
2019-Aug-18 05:39 239 13.9
2019-Aug-18 05:34 239 13.9
2019-Aug-18 05:19 239 13.3
2019-Aug-18 05:14 239 13.3
2019-Aug-18 05:04 239 13.3
2019-Aug-18 04:49 239 13.3
2019-Aug-18 04:39 239 13.3
2019-Aug-18 04:14 239 13.3
2019-Aug-18 04:09 239 13.3
2019-Aug-18 04:04 239 13.3
2019-Aug-18 03:49 239 13.3
2019-Aug-18 03:44 239 13.3
2019-Aug-18 03:34 239 13.3
2019-Aug-18 03:19 239 13.3
2019-Aug-18 03:09 239 13.3
2019-Aug-18 02:49 239 13.3
2019-Aug-18 02:44 239 0 gusting 1 13.3
2019-Aug-18 02:34 239 13.3
2019-Aug-18 02:19 239 12.8
2019-Aug-18 02:14 239 12.8
2019-Aug-18 02:09 239 12.8
2019-Aug-18 02:04 239 12.8
2019-Aug-18 01:34 239 13.3
2019-Aug-18 01:19 239 13.3
2019-Aug-18 01:14 239 0 gusting 0 13.9
2019-Aug-18 01:09 239 13.9
2019-Aug-18 01:04 239 0 gusting 1 13.9
2019-Aug-18 00:49 243 13.9
2019-Aug-18 00:44 243 14.4
2019-Aug-18 00:39 243 14.4
2019-Aug-18 00:34 243 0 gusting 1 14.4
2019-Aug-18 00:09 242 15.0
2019-Aug-17 23:49 248 1 gusting 4 15.6
2019-Aug-17 23:39 237 1 gusting 4 15.6
2019-Aug-17 23:34 227 0 gusting 4 15.6
2019-Aug-17 23:19 236 1 gusting 6 15.6
2019-Aug-17 23:14 256 2 gusting 4 15.6
2019-Aug-17 23:09 219 1 gusting 2 15.6
2019-Aug-17 22:49 208 2 gusting 4 16.1
2019-Aug-17 22:44 235 2 gusting 6 16.1
2019-Aug-17 22:39 215 1 gusting 6 16.1
2019-Aug-17 22:34 233 5 gusting 11 16.1
2019-Aug-17 22:14 220 1 gusting 6 16.1
2019-Aug-17 22:09 232 2 gusting 4 16.1
2019-Aug-17 22:04 211 1 gusting 7 16.1
2019-Aug-17 21:39 225 2 gusting 5 16.1
2019-Aug-17 21:34 227 4 gusting 6 16.1
2019-Aug-17 21:14 212 0 gusting 2 16.1
2019-Aug-17 21:09 230 1 gusting 2 16.1
2019-Aug-17 20:49 225 1 gusting 5 16.1
2019-Aug-17 20:44 198 1 gusting 5 16.1
2019-Aug-17 20:39 201 3 gusting 8 16.1
2019-Aug-17 20:34 202 2 gusting 6 16.1
2019-Aug-17 20:14 212 4 gusting 6 16.1
2019-Aug-17 19:49 201 3 gusting 7 16.1
2019-Aug-17 19:14 208 2 gusting 5 16.1
2019-Aug-17 19:09 190 3 gusting 8 16.1
2019-Aug-17 18:49 202 4 gusting 7 16.1
2019-Aug-17 18:44 194 4 gusting 8 16.1
2019-Aug-17 18:39 205 3 gusting 7 16.1
2019-Aug-17 18:34 235 2 gusting 10 16.1
2019-Aug-17 18:19 225 3 gusting 7 16.1
2019-Aug-17 18:14 219 1 gusting 5 16.1
2019-Aug-17 18:09 177 3 gusting 6 16.1
2019-Aug-17 18:04 193 4 gusting 7 16.1
2019-Aug-17 17:49 201 4 gusting 7 16.1
2019-Aug-17 17:44 192 3 gusting 7 16.1
2019-Aug-17 17:39 213 4 gusting 8 16.1
2019-Aug-17 17:34 205 3 gusting 8 16.1
2019-Aug-17 17:14 210 6 gusting 8 16.1
2019-Aug-17 17:09 206 3 gusting 8 16.1
2019-Aug-17 16:44 198 5 gusting 8 16.1
2019-Aug-17 16:14 182 2 gusting 6 16.1
2019-Aug-17 16:09 231 1 gusting 6 16.1
2019-Aug-17 16:04 196 3 gusting 10 16.1
2019-Aug-17 15:44 209 4 gusting 8 15.6
2019-Aug-17 15:34 174 4 gusting 10 15.6
2019-Aug-17 15:19 200 3 gusting 10 15.6
2019-Aug-17 15:14 182 3 gusting 10 15.6
2019-Aug-17 15:04 184 4 gusting 10 15.6
2019-Aug-17 14:39 178 4 gusting 6 15.6
2019-Aug-17 14:34 218 6 gusting 10 15.6
2019-Aug-17 14:19 191 2 gusting 7 15.6
2019-Aug-17 13:49 199 6 gusting 14 15.6
2019-Aug-17 13:44 186 6 gusting 12 15.6
2019-Aug-17 13:14 192 4 gusting 10 15.0
2019-Aug-17 13:09 210 3 gusting 13 15.0
2019-Aug-17 12:49 195 4 gusting 10 15.0
2019-Aug-17 12:44 228 2 gusting 12 15.0
2019-Aug-17 12:39 194 5 gusting 12 15.0
2019-Aug-17 12:34 175 6 gusting 10 15.0
2019-Aug-17 12:14 168 4 gusting 10 15.0
2019-Aug-17 12:09 206 4 gusting 10 15.0
2019-Aug-17 11:44 211 5 gusting 8 15.0
2019-Aug-17 11:39 177 5 gusting 12 15.0
2019-Aug-17 11:19 215 4 gusting 6 15.0
2019-Aug-17 11:14 175 6 gusting 12 15.0
2019-Aug-17 11:09 140 5 gusting 10 15.0
2019-Aug-17 11:04 145 4 gusting 12 14.4
2019-Aug-17 10:44 170 3 gusting 6 14.4
2019-Aug-17 10:39 168 4 gusting 6 14.4
2019-Aug-17 10:34 181 3 gusting 8 14.4
2019-Aug-17 10:19 175 6 gusting 12 14.4
2019-Aug-17 10:09 178 4 gusting 13 14.4
2019-Aug-17 10:04 160 3 gusting 10 14.4
2019-Aug-17 09:49 142 3 gusting 10 14.4
2019-Aug-17 09:44 193 2 gusting 10 14.4
2019-Aug-17 09:34 178 3 gusting 12 14.4
2019-Aug-17 09:09 191 4 gusting 8 13.9
2019-Aug-17 09:04 174 4 gusting 10 13.9
2019-Aug-17 08:49 132 3 gusting 10 13.9
2019-Aug-17 08:44 158 4 gusting 15 13.9
2019-Aug-17 08:39 188 4 gusting 10 13.9
2019-Aug-17 08:34 191 3 gusting 10 13.9
2019-Aug-17 08:19 157 4 gusting 10 13.9
2019-Aug-17 08:14 146 4 gusting 6 13.9
2019-Aug-17 08:09 200 5 gusting 7 13.9
2019-Aug-17 08:04 152 1 gusting 11 13.9
2019-Aug-17 07:49 158 2 gusting 13 13.9
2019-Aug-17 07:44 178 4 gusting 8 13.9
2019-Aug-17 07:39 183 4 gusting 7 13.9
2019-Aug-17 07:34 170 2 gusting 6 13.9
2019-Aug-17 07:19 207 1 gusting 6 13.9
2019-Aug-17 07:14 169 2 gusting 6 13.9
2019-Aug-17 07:09 193 1 gusting 5 13.3
2019-Aug-17 06:14 172 1 gusting 4 13.3
2019-Aug-17 06:09 202 0 gusting 5 13.3
2019-Aug-17 06:04 176 1 gusting 6 13.3
2019-Aug-17 05:49 178 1 gusting 2 12.8
2019-Aug-17 05:39 159 1 gusting 2 12.8
2019-Aug-17 05:34 136 0 gusting 5 12.8
2019-Aug-17 05:14 176 0 gusting 4 12.8
2019-Aug-17 05:09 193 12.8
2019-Aug-17 05:04 188 0 gusting 5 12.8
2019-Aug-17 04:49 123 1 gusting 6 12.2
2019-Aug-17 04:39 189 0 gusting 6 12.2
2019-Aug-17 04:34 187 0 gusting 6 12.2
2019-Aug-17 04:19 154 1 gusting 4 11.7
2019-Aug-17 04:14 148 1 gusting 2 11.7
2019-Aug-17 04:09 155 1 gusting 2 11.7
2019-Aug-17 04:04 154 1 gusting 4 11.7
2019-Aug-17 03:49 121 1 gusting 2 11.7
2019-Aug-17 03:39 187 0 gusting 2 11.1
2019-Aug-17 03:34 168 1 gusting 2 11.1
2019-Aug-17 03:19 184 0 gusting 2 11.1
2019-Aug-17 03:14 177 0 gusting 1 11.1
2019-Aug-17 03:09 192 0 gusting 1 11.1
2019-Aug-17 03:04 194 0 gusting 2 11.1
2019-Aug-17 02:49 194 10.6
2019-Aug-17 02:44 194 0 gusting 1 10.6
2019-Aug-17 02:34 194 10.0
2019-Aug-17 02:19 209 8.9
2019-Aug-17 02:14 209 8.9
2019-Aug-17 02:09 209 8.9
2019-Aug-17 01:49 209 8.9
2019-Aug-17 01:44 209 8.9
2019-Aug-17 01:19 209 9.4
2019-Aug-17 01:14 209 9.4
2019-Aug-17 01:04 209 8.9
2019-Aug-17 00:49 209 8.9
2019-Aug-17 00:44 209 8.9
2019-Aug-17 00:39 209 8.9
2019-Aug-17 00:34 209 8.9
2019-Aug-17 00:19 209 8.9
2019-Aug-17 00:09 209 8.9
2019-Aug-17 00:04 209 8.9
2019-Aug-16 23:49 209 9.4
2019-Aug-16 23:44 209 9.4
2019-Aug-16 23:34 209 9.4
2019-Aug-16 23:09 209 10.0
2019-Aug-16 22:49 209 10.6
2019-Aug-16 22:44 209 10.6
2019-Aug-16 22:34 209 10.6
2019-Aug-16 22:19 209 11.1
2019-Aug-16 22:04 209 11.1
2019-Aug-16 21:49 209 11.1
2019-Aug-16 21:44 209 11.7
2019-Aug-16 21:39 209 11.7
2019-Aug-16 21:34 209 11.7
2019-Aug-16 21:14 209 12.2
2019-Aug-16 21:09 209 11.7
2019-Aug-16 21:04 209 11.7
2019-Aug-16 20:44 209 12.2
2019-Aug-16 20:34 209 12.2
2019-Aug-16 20:04 209 0 gusting 1 13.3
2019-Aug-16 19:44 209 1 gusting 2 13.9
2019-Aug-16 19:39 209 0 gusting 1 13.9
2019-Aug-16 19:19 210 13.9
2019-Aug-16 19:14 213 13.9
2019-Aug-16 19:09 213 14.4
2019-Aug-16 19:04 213 14.4
2019-Aug-16 18:49 213 14.4
2019-Aug-16 18:44 213 14.4
2019-Aug-16 18:39 213 1 gusting 2 14.4
2019-Aug-16 18:09 218 2 gusting 4 15.0
2019-Aug-16 18:04 219 2 gusting 5 15.0
2019-Aug-16 17:49 213 1 gusting 5 15.6
2019-Aug-16 17:44 224 1 gusting 2 15.6
2019-Aug-16 17:39 205 2 gusting 4 15.6
2019-Aug-16 17:34 196 1 gusting 6 15.6
2019-Aug-16 17:19 230 1 gusting 2 15.6
2019-Aug-16 17:14 241 1 gusting 5 15.6
2019-Aug-16 17:09 219 1 gusting 2 15.6
2019-Aug-16 16:44 211 2 gusting 5 16.1
2019-Aug-16 16:39 228 2 gusting 5 16.1
2019-Aug-16 16:19 246 2 gusting 6 15.6
2019-Aug-16 16:14 217 1 gusting 6 15.6
2019-Aug-16 16:09 233 1 gusting 6 15.6
2019-Aug-16 16:04 243 1 gusting 6 15.6
2019-Aug-16 15:49 243 2 gusting 5 16.1
2019-Aug-16 15:44 248 2 gusting 6 16.1
2019-Aug-16 15:34 258 2 gusting 6 16.1
2019-Aug-16 15:19 221 2 gusting 5 16.1
2019-Aug-16 14:44 212 4 gusting 8 16.1
2019-Aug-16 14:34 241 3 gusting 7 16.1
2019-Aug-16 14:19 220 1 gusting 6 16.1
2019-Aug-16 14:14 231 4 gusting 6 16.1
2019-Aug-16 14:09 255 4 gusting 10 16.1
2019-Aug-16 14:04 240 5 gusting 10 16.7
2019-Aug-16 13:49 294 3 gusting 8 16.1
2019-Aug-16 13:34 230 4 gusting 7 16.7
2019-Aug-16 13:19 268 1 gusting 4 16.7
2019-Aug-16 13:09 245 3 gusting 10 17.2
2019-Aug-16 13:04 258 1 gusting 10 17.2
2019-Aug-16 12:49 250 4 gusting 10 17.2
2019-Aug-16 12:44 238 3 gusting 7 17.8
2019-Aug-16 12:34 246 5 gusting 10 17.2
2019-Aug-16 12:19 247 4 gusting 8 16.7
2019-Aug-16 12:14 277 4 gusting 8 16.7
2019-Aug-16 12:04 254 2 gusting 13 17.2
2019-Aug-16 11:49 249 2 gusting 7 17.8
2019-Aug-16 11:44 245 4 gusting 8 17.8
2019-Aug-16 11:39 258 3 gusting 6 18.3
2019-Aug-16 11:34 269 2 gusting 12 18.3
2019-Aug-16 11:19 241 5 gusting 10 18.3
2019-Aug-16 11:14 262 4 gusting 10 17.8
2019-Aug-16 11:09 238 5 gusting 8 17.8
2019-Aug-16 11:04 243 2 gusting 10 17.8
2019-Aug-16 10:44 230 1 gusting 5 17.8
2019-Aug-16 10:34 253 3 gusting 10 17.2
2019-Aug-16 10:19 246 6 gusting 11 17.2
2019-Aug-16 10:09 232 4 gusting 6 17.2
2019-Aug-16 10:04 236 3 gusting 7 17.2
2019-Aug-16 09:44 231 4 gusting 6 17.2
2019-Aug-16 09:34 257 1 gusting 5 16.7
2019-Aug-16 09:14 242 1 gusting 4 16.7
2019-Aug-16 09:09 240 0 gusting 2 16.1
2019-Aug-16 08:49 208 1 gusting 2 16.7
2019-Aug-16 08:44 205 1 gusting 2 16.7
2019-Aug-16 08:39 214 0 gusting 2 16.7
2019-Aug-16 08:34 214 1 gusting 5 16.1
2019-Aug-16 08:19 222 0 gusting 2 16.1
2019-Aug-16 08:09 157 1 gusting 2 16.1
2019-Aug-16 08:04 217 16.1